sensor_id;sensor_type;location;lat;lon;timestamp;P1;durP1;ratioP1;P2;durP2;ratioP2
68126;SDS011;54931;52.098;21.006;2023-08-31T00:00:53;13.60;;;6.90;;
68126;SDS011;54931;52.098;21.006;2023-08-31T00:03:31;13.30;;;6.70;;
68126;SDS011;54931;52.098;21.006;2023-08-31T00:06:02;13.00;;;6.70;;
68126;SDS011;54931;52.098;21.006;2023-08-31T00:08:35;15.20;;;7.10;;
68126;SDS011;54931;52.098;21.006;2023-08-31T00:11:02;13.90;;;7.20;;
68126;SDS011;54931;52.098;21.006;2023-08-31T00:13:30;13.30;;;7.00;;
68126;SDS011;54931;52.098;21.006;2023-08-31T00:15:58;11.20;;;6.50;;
68126;SDS011;54931;52.098;21.006;2023-08-31T00:18:26;13.20;;;7.40;;
68126;SDS011;54931;52.098;21.006;2023-08-31T00:20:54;12.20;;;7.10;;
68126;SDS011;54931;52.098;21.006;2023-08-31T00:23:21;14.30;;;7.10;;
68126;SDS011;54931;52.098;21.006;2023-08-31T00:25:49;15.50;;;7.40;;
68126;SDS011;54931;52.098;21.006;2023-08-31T00:28:18;12.40;;;7.40;;
68126;SDS011;54931;52.098;21.006;2023-08-31T00:30:46;13.30;;;7.50;;
68126;SDS011;54931;52.098;21.006;2023-08-31T00:33:14;14.30;;;7.20;;
68126;SDS011;54931;52.098;21.006;2023-08-31T00:35:42;15.00;;;7.30;;
68126;SDS011;54931;52.098;21.006;2023-08-31T00:38:13;11.90;;;7.00;;
68126;SDS011;54931;52.098;21.006;2023-08-31T00:40:42;14.70;;;7.50;;
68126;SDS011;54931;52.098;21.006;2023-08-31T00:43:13;13.70;;;7.20;;
68126;SDS011;54931;52.098;21.006;2023-08-31T00:45:43;14.80;;;6.90;;
68126;SDS011;54931;52.098;21.006;2023-08-31T00:48:15;15.90;;;7.80;;
68126;SDS011;54931;52.098;21.006;2023-08-31T00:50:47;14.90;;;6.50;;
68126;SDS011;54931;52.098;21.006;2023-08-31T00:53:16;11.70;;;6.80;;
68126;SDS011;54931;52.098;21.006;2023-08-31T00:55:45;12.80;;;7.40;;
68126;SDS011;54931;52.098;21.006;2023-08-31T00:58:13;12.40;;;7.30;;
68126;SDS011;54931;52.098;21.006;2023-08-31T01:03:50;10.90;;;6.60;;
68126;SDS011;54931;52.098;21.006;2023-08-31T01:09:31;12.40;;;6.80;;
68126;SDS011;54931;52.098;21.006;2023-08-31T01:12:10;12.50;;;7.30;;
68126;SDS011;54931;52.098;21.006;2023-08-31T01:15:23;15.20;;;7.60;;
68126;SDS011;54931;52.098;21.006;2023-08-31T01:20:15;13.40;;;7.10;;
68126;SDS011;54931;52.098;21.006;2023-08-31T01:23:03;13.10;;;6.30;;
68126;SDS011;54931;52.098;21.006;2023-08-31T01:25:33;10.50;;;6.10;;
68126;SDS011;54931;52.098;21.006;2023-08-31T01:28:02;11.70;;;6.40;;
68126;SDS011;54931;52.098;21.006;2023-08-31T01:30:31;16.50;;;7.00;;
68126;SDS011;54931;52.098;21.006;2023-08-31T01:32:59;11.20;;;6.80;;
68126;SDS011;54931;52.098;21.006;2023-08-31T01:35:31;10.50;;;6.80;;
68126;SDS011;54931;52.098;21.006;2023-08-31T01:38:09;12.70;;;7.10;;
68126;SDS011;54931;52.098;21.006;2023-08-31T01:40:47;16.50;;;7.30;;
68126;SDS011;54931;52.098;21.006;2023-08-31T01:43:22;12.90;;;7.00;;
68126;SDS011;54931;52.098;21.006;2023-08-31T01:45:50;12.40;;;7.30;;
68126;SDS011;54931;52.098;21.006;2023-08-31T01:48:19;10.30;;;6.70;;
68126;SDS011;54931;52.098;21.006;2023-08-31T01:50:46;11.70;;;6.80;;
68126;SDS011;54931;52.098;21.006;2023-08-31T01:53:14;12.10;;;6.90;;
68126;SDS011;54931;52.098;21.006;2023-08-31T01:55:43;12.70;;;7.30;;
68126;SDS011;54931;52.098;21.006;2023-08-31T01:58:10;12.60;;;6.80;;
68126;SDS011;54931;52.098;21.006;2023-08-31T02:00:37;12.10;;;6.50;;
68126;SDS011;54931;52.098;21.006;2023-08-31T02:03:05;12.60;;;6.90;;
68126;SDS011;54931;52.098;21.006;2023-08-31T02:05:33;15.80;;;8.00;;
68126;SDS011;54931;52.098;21.006;2023-08-31T02:08:02;12.80;;;7.10;;
68126;SDS011;54931;52.098;21.006;2023-08-31T02:10:30;13.20;;;7.10;;
68126;SDS011;54931;52.098;21.006;2023-08-31T02:12:59;13.40;;;7.90;;
68126;SDS011;54931;52.098;21.006;2023-08-31T02:15:27;14.50;;;7.40;;
68126;SDS011;54931;52.098;21.006;2023-08-31T02:17:55;12.30;;;6.30;;
68126;SDS011;54931;52.098;21.006;2023-08-31T02:20:22;10.20;;;6.60;;
68126;SDS011;54931;52.098;21.006;2023-08-31T02:22:51;13.40;;;7.40;;
68126;SDS011;54931;52.098;21.006;2023-08-31T02:25:19;11.30;;;6.80;;
68126;SDS011;54931;52.098;21.006;2023-08-31T02:27:46;13.10;;;7.20;;
68126;SDS011;54931;52.098;21.006;2023-08-31T02:30:14;12.60;;;7.40;;
68126;SDS011;54931;52.098;21.006;2023-08-31T02:32:42;13.70;;;8.00;;
68126;SDS011;54931;52.098;21.006;2023-08-31T02:35:10;14.00;;;8.10;;
68126;SDS011;54931;52.098;21.006;2023-08-31T02:37:39;12.10;;;6.90;;
68126;SDS011;54931;52.098;21.006;2023-08-31T02:40:08;16.10;;;7.50;;
68126;SDS011;54931;52.098;21.006;2023-08-31T02:42:36;17.90;;;7.90;;
68126;SDS011;54931;52.098;21.006;2023-08-31T02:45:04;14.70;;;7.60;;
68126;SDS011;54931;52.098;21.006;2023-08-31T02:47:33;15.80;;;7.90;;
68126;SDS011;54931;52.098;21.006;2023-08-31T02:50:02;14.10;;;7.70;;
68126;SDS011;54931;52.098;21.006;2023-08-31T02:52:31;11.80;;;7.10;;
68126;SDS011;54931;52.098;21.006;2023-08-31T02:54:59;12.20;;;7.30;;
68126;SDS011;54931;52.098;21.006;2023-08-31T02:57:26;11.60;;;7.10;;
68126;SDS011;54931;52.098;21.006;2023-08-31T02:59:55;11.90;;;7.00;;
68126;SDS011;54931;52.098;21.006;2023-08-31T03:02:22;12.00;;;7.00;;
68126;SDS011;54931;52.098;21.006;2023-08-31T03:04:50;10.60;;;6.30;;
68126;SDS011;54931;52.098;21.006;2023-08-31T03:07:17;12.90;;;6.90;;
68126;SDS011;54931;52.098;21.006;2023-08-31T03:09:49;9.80;;;6.40;;
68126;SDS011;54931;52.098;21.006;2023-08-31T03:12:17;12.90;;;6.20;;
68126;SDS011;54931;52.098;21.006;2023-08-31T03:14:45;11.80;;;6.60;;
68126;SDS011;54931;52.098;21.006;2023-08-31T03:17:12;12.70;;;5.90;;
68126;SDS011;54931;52.098;21.006;2023-08-31T03:19:41;9.10;;;6.30;;
68126;SDS011;54931;52.098;21.006;2023-08-31T03:22:09;10.10;;;6.20;;
68126;SDS011;54931;52.098;21.006;2023-08-31T03:24:36;9.80;;;5.60;;
68126;SDS011;54931;52.098;21.006;2023-08-31T03:27:04;12.40;;;5.60;;
68126;SDS011;54931;52.098;21.006;2023-08-31T03:29:32;9.30;;;6.20;;
68126;SDS011;54931;52.098;21.006;2023-08-31T03:32:01;10.10;;;5.60;;
68126;SDS011;54931;52.098;21.006;2023-08-31T03:34:30;8.70;;;5.70;;
68126;SDS011;54931;52.098;21.006;2023-08-31T03:36:58;14.20;;;5.70;;
68126;SDS011;54931;52.098;21.006;2023-08-31T03:39:26;7.30;;;4.80;;
68126;SDS011;54931;52.098;21.006;2023-08-31T03:41:54;8.50;;;5.80;;
68126;SDS011;54931;52.098;21.006;2023-08-31T03:44:21;9.20;;;4.90;;
68126;SDS011;54931;52.098;21.006;2023-08-31T03:46:49;9.20;;;5.40;;
68126;SDS011;54931;52.098;21.006;2023-08-31T03:49:18;10.50;;;5.00;;
68126;SDS011;54931;52.098;21.006;2023-08-31T03:51:47;7.60;;;5.40;;
68126;SDS011;54931;52.098;21.006;2023-08-31T03:54:14;8.50;;;5.00;;
68126;SDS011;54931;52.098;21.006;2023-08-31T03:56:42;9.30;;;5.20;;
68126;SDS011;54931;52.098;21.006;2023-08-31T03:59:10;9.10;;;5.50;;
68126;SDS011;54931;52.098;21.006;2023-08-31T04:01:37;10.70;;;5.00;;
68126;SDS011;54931;52.098;21.006;2023-08-31T04:04:05;9.20;;;5.00;;
68126;SDS011;54931;52.098;21.006;2023-08-31T04:06:33;9.50;;;5.40;;
68126;SDS011;54931;52.098;21.006;2023-08-31T04:09:01;7.40;;;4.80;;
68126;SDS011;54931;52.098;21.006;2023-08-31T04:11:29;7.80;;;4.90;;
68126;SDS011;54931;52.098;21.006;2023-08-31T04:13:58;9.40;;;5.30;;
68126;SDS011;54931;52.098;21.006;2023-08-31T04:16:26;11.10;;;4.90;;
68126;SDS011;54931;52.098;21.006;2023-08-31T04:18:55;9.00;;;5.00;;
68126;SDS011;54931;52.098;21.006;2023-08-31T04:21:23;8.50;;;5.60;;
68126;SDS011;54931;52.098;21.006;2023-08-31T04:23:50;9.30;;;5.50;;
68126;SDS011;54931;52.098;21.006;2023-08-31T04:26:18;8.90;;;5.10;;
68126;SDS011;54931;52.098;21.006;2023-08-31T04:28:48;7.00;;;4.90;;
68126;SDS011;54931;52.098;21.006;2023-08-31T04:31:16;7.60;;;4.90;;
68126;SDS011;54931;52.098;21.006;2023-08-31T04:33:45;8.30;;;4.90;;
68126;SDS011;54931;52.098;21.006;2023-08-31T04:36:12;7.20;;;4.80;;
68126;SDS011;54931;52.098;21.006;2023-08-31T04:38:40;9.10;;;4.80;;
68126;SDS011;54931;52.098;21.006;2023-08-31T04:41:07;8.90;;;4.70;;
68126;SDS011;54931;52.098;21.006;2023-08-31T04:43:37;8.10;;;4.70;;
68126;SDS011;54931;52.098;21.006;2023-08-31T04:46:05;10.20;;;5.40;;
68126;SDS011;54931;52.098;21.006;2023-08-31T04:48:32;7.70;;;4.50;;
68126;SDS011;54931;52.098;21.006;2023-08-31T04:51:00;7.20;;;4.90;;
68126;SDS011;54931;52.098;21.006;2023-08-31T04:53:28;7.80;;;4.80;;
68126;SDS011;54931;52.098;21.006;2023-08-31T04:55:55;8.10;;;5.20;;
68126;SDS011;54931;52.098;21.006;2023-08-31T04:58:23;7.80;;;4.90;;
68126;SDS011;54931;52.098;21.006;2023-08-31T05:00:53;7.20;;;4.90;;
68126;SDS011;54931;52.098;21.006;2023-08-31T05:03:21;8.10;;;5.50;;
68126;SDS011;54931;52.098;21.006;2023-08-31T05:05:48;7.40;;;4.80;;
68126;SDS011;54931;52.098;21.006;2023-08-31T05:08:16;7.60;;;5.40;;
68126;SDS011;54931;52.098;21.006;2023-08-31T05:10:44;9.10;;;5.00;;
68126;SDS011;54931;52.098;21.006;2023-08-31T05:13:13;7.70;;;5.10;;
68126;SDS011;54931;52.098;21.006;2023-08-31T05:15:40;7.70;;;5.30;;
68126;SDS011;54931;52.098;21.006;2023-08-31T05:18:08;9.30;;;5.40;;
68126;SDS011;54931;52.098;21.006;2023-08-31T05:20:35;8.20;;;5.10;;
68126;SDS011;54931;52.098;21.006;2023-08-31T05:23:03;10.10;;;4.80;;
68126;SDS011;54931;52.098;21.006;2023-08-31T05:25:31;7.50;;;5.10;;
68126;SDS011;54931;52.098;21.006;2023-08-31T05:27:59;8.50;;;5.00;;
68126;SDS011;54931;52.098;21.006;2023-08-31T05:30:26;8.20;;;5.20;;
68126;SDS011;54931;52.098;21.006;2023-08-31T05:32:55;10.40;;;5.10;;
68126;SDS011;54931;52.098;21.006;2023-08-31T05:35:22;7.90;;;5.20;;
68126;SDS011;54931;52.098;21.006;2023-08-31T05:37:50;9.20;;;5.70;;
68126;SDS011;54931;52.098;21.006;2023-08-31T05:40:18;7.70;;;5.00;;
68126;SDS011;54931;52.098;21.006;2023-08-31T05:42:46;8.40;;;5.10;;
68126;SDS011;54931;52.098;21.006;2023-08-31T05:45:13;8.50;;;4.70;;
68126;SDS011;54931;52.098;21.006;2023-08-31T05:47:42;7.60;;;5.30;;
68126;SDS011;54931;52.098;21.006;2023-08-31T05:50:10;6.50;;;4.90;;
68126;SDS011;54931;52.098;21.006;2023-08-31T05:52:38;8.70;;;4.80;;
68126;SDS011;54931;52.098;21.006;2023-08-31T05:55:11;8.40;;;4.90;;
68126;SDS011;54931;52.098;21.006;2023-08-31T05:57:38;6.60;;;4.70;;
68126;SDS011;54931;52.098;21.006;2023-08-31T06:00:07;9.40;;;5.00;;
68126;SDS011;54931;52.098;21.006;2023-08-31T06:02:37;8.90;;;5.10;;
68126;SDS011;54931;52.098;21.006;2023-08-31T06:05:06;6.80;;;4.70;;
68126;SDS011;54931;52.098;21.006;2023-08-31T06:07:35;6.30;;;4.20;;
68126;SDS011;54931;52.098;21.006;2023-08-31T06:10:03;5.60;;;4.10;;
68126;SDS011;54931;52.098;21.006;2023-08-31T06:12:31;4.80;;;3.80;;
68126;SDS011;54931;52.098;21.006;2023-08-31T06:14:59;6.00;;;4.10;;
68126;SDS011;54931;52.098;21.006;2023-08-31T06:17:28;4.90;;;3.50;;
68126;SDS011;54931;52.098;21.006;2023-08-31T06:19:57;5.60;;;4.20;;
68126;SDS011;54931;52.098;21.006;2023-08-31T06:22:25;5.90;;;4.00;;
68126;SDS011;54931;52.098;21.006;2023-08-31T06:24:52;5.30;;;3.90;;
68126;SDS011;54931;52.098;21.006;2023-08-31T06:27:20;6.40;;;3.20;;
68126;SDS011;54931;52.098;21.006;2023-08-31T06:29:48;4.60;;;3.20;;
68126;SDS011;54931;52.098;21.006;2023-08-31T06:32:17;4.50;;;2.80;;
68126;SDS011;54931;52.098;21.006;2023-08-31T06:34:46;4.00;;;2.80;;
68126;SDS011;54931;52.098;21.006;2023-08-31T06:37:14;4.50;;;2.80;;
68126;SDS011;54931;52.098;21.006;2023-08-31T06:39:42;3.10;;;2.40;;
68126;SDS011;54931;52.098;21.006;2023-08-31T06:42:09;3.20;;;2.20;;
68126;SDS011;54931;52.098;21.006;2023-08-31T06:44:37;3.20;;;2.10;;
68126;SDS011;54931;52.098;21.006;2023-08-31T06:47:05;3.20;;;2.00;;
68126;SDS011;54931;52.098;21.006;2023-08-31T06:49:33;2.90;;;2.00;;
68126;SDS011;54931;52.098;21.006;2023-08-31T06:52:01;3.20;;;2.50;;
68126;SDS011;54931;52.098;21.006;2023-08-31T06:54:30;3.80;;;2.30;;
68126;SDS011;54931;52.098;21.006;2023-08-31T06:56:57;5.20;;;2.50;;
68126;SDS011;54931;52.098;21.006;2023-08-31T06:59:25;6.50;;;2.40;;
68126;SDS011;54931;52.098;21.006;2023-08-31T07:01:53;4.10;;;2.40;;
68126;SDS011;54931;52.098;21.006;2023-08-31T07:04:21;6.00;;;2.40;;
68126;SDS011;54931;52.098;21.006;2023-08-31T07:06:48;3.30;;;2.40;;
68126;SDS011;54931;52.098;21.006;2023-08-31T07:09:16;3.60;;;2.70;;
68126;SDS011;54931;52.098;21.006;2023-08-31T07:11:44;5.70;;;2.90;;
68126;SDS011;54931;52.098;21.006;2023-08-31T07:14:12;5.70;;;2.50;;
68126;SDS011;54931;52.098;21.006;2023-08-31T07:16:40;3.40;;;2.50;;
68126;SDS011;54931;52.098;21.006;2023-08-31T07:19:08;5.00;;;2.80;;
68126;SDS011;54931;52.098;21.006;2023-08-31T07:21:35;4.70;;;2.60;;
68126;SDS011;54931;52.098;21.006;2023-08-31T07:24:04;3.60;;;2.50;;
68126;SDS011;54931;52.098;21.006;2023-08-31T07:26:32;3.30;;;2.20;;
68126;SDS011;54931;52.098;21.006;2023-08-31T07:29:00;3.80;;;2.50;;
68126;SDS011;54931;52.098;21.006;2023-08-31T07:31:32;3.70;;;2.30;;
68126;SDS011;54931;52.098;21.006;2023-08-31T07:33:59;3.10;;;2.50;;
68126;SDS011;54931;52.098;21.006;2023-08-31T07:36:29;3.90;;;2.30;;
68126;SDS011;54931;52.098;21.006;2023-08-31T07:38:56;4.30;;;2.50;;
68126;SDS011;54931;52.098;21.006;2023-08-31T07:41:25;3.40;;;2.20;;
68126;SDS011;54931;52.098;21.006;2023-08-31T07:43:53;3.40;;;2.40;;
68126;SDS011;54931;52.098;21.006;2023-08-31T07:46:21;4.00;;;2.50;;
68126;SDS011;54931;52.098;21.006;2023-08-31T07:48:48;2.50;;;2.10;;
68126;SDS011;54931;52.098;21.006;2023-08-31T07:51:18;3.10;;;2.00;;
68126;SDS011;54931;52.098;21.006;2023-08-31T07:53:50;3.60;;;2.20;;
68126;SDS011;54931;52.098;21.006;2023-08-31T07:56:18;3.40;;;1.70;;
68126;SDS011;54931;52.098;21.006;2023-08-31T07:58:45;2.60;;;1.90;;
68126;SDS011;54931;52.098;21.006;2023-08-31T08:01:13;3.00;;;2.10;;
68126;SDS011;54931;52.098;21.006;2023-08-31T08:03:41;3.70;;;2.30;;
68126;SDS011;54931;52.098;21.006;2023-08-31T08:06:08;2.40;;;1.90;;
68126;SDS011;54931;52.098;21.006;2023-08-31T08:08:36;4.90;;;2.40;;
68126;SDS011;54931;52.098;21.006;2023-08-31T08:11:04;2.90;;;2.30;;
68126;SDS011;54931;52.098;21.006;2023-08-31T08:13:32;4.20;;;2.50;;
68126;SDS011;54931;52.098;21.006;2023-08-31T08:16:00;3.80;;;2.10;;
68126;SDS011;54931;52.098;21.006;2023-08-31T08:18:27;3.30;;;2.00;;
68126;SDS011;54931;52.098;21.006;2023-08-31T08:20:55;3.00;;;2.10;;
68126;SDS011;54931;52.098;21.006;2023-08-31T08:23:23;4.30;;;1.90;;
68126;SDS011;54931;52.098;21.006;2023-08-31T08:25:50;4.40;;;2.10;;
68126;SDS011;54931;52.098;21.006;2023-08-31T08:28:18;3.20;;;1.80;;
68126;SDS011;54931;52.098;21.006;2023-08-31T08:30:45;2.50;;;1.90;;
68126;SDS011;54931;52.098;21.006;2023-08-31T08:33:13;2.90;;;2.00;;
68126;SDS011;54931;52.098;21.006;2023-08-31T08:35:44;2.00;;;1.70;;
68126;SDS011;54931;52.098;21.006;2023-08-31T08:38:11;2.30;;;1.80;;
68126;SDS011;54931;52.098;21.006;2023-08-31T08:40:46;2.40;;;1.70;;
68126;SDS011;54931;52.098;21.006;2023-08-31T08:43:14;3.10;;;1.50;;
68126;SDS011;54931;52.098;21.006;2023-08-31T08:45:43;3.70;;;1.70;;
68126;SDS011;54931;52.098;21.006;2023-08-31T08:48:15;2.50;;;1.60;;
68126;SDS011;54931;52.098;21.006;2023-08-31T08:50:44;2.70;;;1.30;;
68126;SDS011;54931;52.098;21.006;2023-08-31T08:53:13;2.50;;;1.50;;
68126;SDS011;54931;52.098;21.006;2023-08-31T08:55:45;2.10;;;1.60;;
68126;SDS011;54931;52.098;21.006;2023-08-31T08:58:12;2.20;;;1.50;;
68126;SDS011;54931;52.098;21.006;2023-08-31T09:00:41;2.20;;;1.50;;
68126;SDS011;54931;52.098;21.006;2023-08-31T09:03:11;4.90;;;1.50;;
68126;SDS011;54931;52.098;21.006;2023-08-31T09:05:39;2.60;;;1.70;;
68126;SDS011;54931;52.098;21.006;2023-08-31T09:08:08;2.70;;;1.60;;
68126;SDS011;54931;52.098;21.006;2023-08-31T09:10:43;4.30;;;1.80;;
68126;SDS011;54931;52.098;21.006;2023-08-31T09:13:14;2.90;;;1.80;;
68126;SDS011;54931;52.098;21.006;2023-08-31T09:15:48;2.60;;;1.70;;
68126;SDS011;54931;52.098;21.006;2023-08-31T09:18:30;1.90;;;1.60;;
68126;SDS011;54931;52.098;21.006;2023-08-31T09:21:00;2.40;;;1.50;;
68126;SDS011;54931;52.098;21.006;2023-08-31T09:23:28;5.40;;;1.70;;
68126;SDS011;54931;52.098;21.006;2023-08-31T09:25:56;4.50;;;1.60;;
68126;SDS011;54931;52.098;21.006;2023-08-31T09:28:26;4.70;;;1.70;;
68126;SDS011;54931;52.098;21.006;2023-08-31T09:31:06;7.00;;;2.10;;
68126;SDS011;54931;52.098;21.006;2023-08-31T09:33:35;10.50;;;2.10;;
68126;SDS011;54931;52.098;21.006;2023-08-31T09:36:07;8.60;;;2.40;;
68126;SDS011;54931;52.098;21.006;2023-08-31T09:38:42;3.20;;;1.90;;
68126;SDS011;54931;52.098;21.006;2023-08-31T09:41:11;4.30;;;2.00;;
68126;SDS011;54931;52.098;21.006;2023-08-31T09:43:39;2.60;;;1.60;;
68126;SDS011;54931;52.098;21.006;2023-08-31T09:46:08;2.80;;;1.80;;
68126;SDS011;54931;52.098;21.006;2023-08-31T09:48:38;3.60;;;2.10;;
68126;SDS011;54931;52.098;21.006;2023-08-31T09:51:14;3.40;;;1.90;;
68126;SDS011;54931;52.098;21.006;2023-08-31T09:53:51;3.60;;;2.00;;
68126;SDS011;54931;52.098;21.006;2023-08-31T09:56:24;2.60;;;2.00;;
68126;SDS011;54931;52.098;21.006;2023-08-31T09:58:56;3.80;;;2.10;;
68126;SDS011;54931;52.098;21.006;2023-08-31T10:01:24;5.70;;;2.30;;
68126;SDS011;54931;52.098;21.006;2023-08-31T10:03:52;2.80;;;2.10;;
68126;SDS011;54931;52.098;21.006;2023-08-31T10:06:22;2.80;;;2.00;;
68126;SDS011;54931;52.098;21.006;2023-08-31T10:08:50;4.20;;;2.00;;
68126;SDS011;54931;52.098;21.006;2023-08-31T10:11:19;3.90;;;2.20;;
68126;SDS011;54931;52.098;21.006;2023-08-31T10:13:47;4.50;;;2.00;;
68126;SDS011;54931;52.098;21.006;2023-08-31T10:16:16;3.00;;;2.40;;
68126;SDS011;54931;52.098;21.006;2023-08-31T10:18:46;4.20;;;2.30;;
68126;SDS011;54931;52.098;21.006;2023-08-31T10:21:18;2.60;;;2.10;;
68126;SDS011;54931;52.098;21.006;2023-08-31T10:23:47;3.20;;;2.40;;
68126;SDS011;54931;52.098;21.006;2023-08-31T10:26:28;5.40;;;2.30;;
68126;SDS011;54931;52.098;21.006;2023-08-31T10:28:58;3.20;;;2.30;;
68126;SDS011;54931;52.098;21.006;2023-08-31T10:31:31;4.40;;;2.50;;
68126;SDS011;54931;52.098;21.006;2023-08-31T10:34:02;2.80;;;2.40;;
68126;SDS011;54931;52.098;21.006;2023-08-31T10:37:00;4.40;;;2.40;;
68126;SDS011;54931;52.098;21.006;2023-08-31T10:39:37;5.80;;;2.70;;
68126;SDS011;54931;52.098;21.006;2023-08-31T10:42:06;4.30;;;2.80;;
68126;SDS011;54931;52.098;21.006;2023-08-31T10:44:34;5.40;;;2.70;;
68126;SDS011;54931;52.098;21.006;2023-08-31T10:47:05;4.20;;;2.80;;
68126;SDS011;54931;52.098;21.006;2023-08-31T10:49:33;5.30;;;2.70;;
68126;SDS011;54931;52.098;21.006;2023-08-31T10:52:18;3.50;;;2.80;;
68126;SDS011;54931;52.098;21.006;2023-08-31T10:54:47;5.60;;;3.00;;
68126;SDS011;54931;52.098;21.006;2023-08-31T10:57:32;4.40;;;3.30;;
68126;SDS011;54931;52.098;21.006;2023-08-31T11:00:03;4.80;;;3.20;;
68126;SDS011;54931;52.098;21.006;2023-08-31T11:02:43;7.40;;;3.50;;
68126;SDS011;54931;52.098;21.006;2023-08-31T11:05:16;5.90;;;3.30;;
68126;SDS011;54931;52.098;21.006;2023-08-31T11:07:50;6.50;;;2.70;;
68126;SDS011;54931;52.098;21.006;2023-08-31T11:10:21;4.10;;;3.10;;
68126;SDS011;54931;52.098;21.006;2023-08-31T11:12:51;6.10;;;3.20;;
68126;SDS011;54931;52.098;21.006;2023-08-31T11:15:23;3.40;;;3.10;;
68126;SDS011;54931;52.098;21.006;2023-08-31T11:17:56;4.90;;;3.40;;
68126;SDS011;54931;52.098;21.006;2023-08-31T11:20:24;4.80;;;3.10;;
68126;SDS011;54931;52.098;21.006;2023-08-31T11:22:56;4.30;;;3.20;;
68126;SDS011;54931;52.098;21.006;2023-08-31T11:25:24;5.30;;;3.30;;
68126;SDS011;54931;52.098;21.006;2023-08-31T11:27:56;5.20;;;3.40;;
68126;SDS011;54931;52.098;21.006;2023-08-31T11:30:26;4.60;;;3.30;;
68126;SDS011;54931;52.098;21.006;2023-08-31T11:33:03;5.60;;;3.20;;
68126;SDS011;54931;52.098;21.006;2023-08-31T11:35:35;4.70;;;3.20;;
68126;SDS011;54931;52.098;21.006;2023-08-31T11:38:05;5.40;;;3.30;;
68126;SDS011;54931;52.098;21.006;2023-08-31T11:40:33;4.30;;;3.10;;
68126;SDS011;54931;52.098;21.006;2023-08-31T11:43:04;3.60;;;3.20;;
68126;SDS011;54931;52.098;21.006;2023-08-31T11:45:35;4.70;;;3.40;;
68126;SDS011;54931;52.098;21.006;2023-08-31T11:48:06;4.30;;;3.30;;
68126;SDS011;54931;52.098;21.006;2023-08-31T11:50:36;4.20;;;3.50;;
68126;SDS011;54931;52.098;21.006;2023-08-31T11:53:06;3.50;;;3.00;;
68126;SDS011;54931;52.098;21.006;2023-08-31T11:55:35;9.10;;;3.30;;
68126;SDS011;54931;52.098;21.006;2023-08-31T11:58:03;4.80;;;3.10;;
68126;SDS011;54931;52.098;21.006;2023-08-31T12:00:35;5.00;;;3.10;;
68126;SDS011;54931;52.098;21.006;2023-08-31T12:03:03;5.30;;;3.30;;
68126;SDS011;54931;52.098;21.006;2023-08-31T12:05:46;4.50;;;3.20;;
68126;SDS011;54931;52.098;21.006;2023-08-31T12:08:16;3.80;;;3.40;;
68126;SDS011;54931;52.098;21.006;2023-08-31T12:10:52;4.60;;;3.20;;
68126;SDS011;54931;52.098;21.006;2023-08-31T12:13:20;5.20;;;3.30;;
68126;SDS011;54931;52.098;21.006;2023-08-31T12:15:53;5.30;;;3.50;;
68126;SDS011;54931;52.098;21.006;2023-08-31T12:18:21;7.40;;;3.10;;
68126;SDS011;54931;52.098;21.006;2023-08-31T12:20:50;3.50;;;3.00;;
68126;SDS011;54931;52.098;21.006;2023-08-31T12:23:19;5.10;;;3.20;;
68126;SDS011;54931;52.098;21.006;2023-08-31T12:25:51;5.30;;;3.30;;
68126;SDS011;54931;52.098;21.006;2023-08-31T12:28:22;6.60;;;3.30;;
68126;SDS011;54931;52.098;21.006;2023-08-31T12:30:54;4.00;;;3.20;;
68126;SDS011;54931;52.098;21.006;2023-08-31T12:33:23;4.40;;;3.20;;
68126;SDS011;54931;52.098;21.006;2023-08-31T12:35:52;4.60;;;3.70;;
68126;SDS011;54931;52.098;21.006;2023-08-31T12:38:19;6.50;;;3.40;;
68126;SDS011;54931;52.098;21.006;2023-08-31T12:40:47;6.20;;;3.70;;
68126;SDS011;54931;52.098;21.006;2023-08-31T12:43:15;4.20;;;3.40;;
68126;SDS011;54931;52.098;21.006;2023-08-31T12:45:43;8.00;;;3.50;;
68126;SDS011;54931;52.098;21.006;2023-08-31T12:48:11;4.00;;;3.20;;
68126;SDS011;54931;52.098;21.006;2023-08-31T12:50:38;4.40;;;3.40;;
68126;SDS011;54931;52.098;21.006;2023-08-31T12:53:06;7.10;;;3.50;;
68126;SDS011;54931;52.098;21.006;2023-08-31T12:55:34;5.70;;;3.30;;
68126;SDS011;54931;52.098;21.006;2023-08-31T12:58:02;6.30;;;4.00;;
68126;SDS011;54931;52.098;21.006;2023-08-31T13:00:30;4.90;;;3.60;;
68126;SDS011;54931;52.098;21.006;2023-08-31T13:03:00;8.50;;;3.50;;
68126;SDS011;54931;52.098;21.006;2023-08-31T13:05:30;5.50;;;3.50;;
68126;SDS011;54931;52.098;21.006;2023-08-31T13:07:58;4.20;;;3.70;;
68126;SDS011;54931;52.098;21.006;2023-08-31T13:10:26;3.70;;;3.30;;
68126;SDS011;54931;52.098;21.006;2023-08-31T13:12:53;6.30;;;3.40;;
68126;SDS011;54931;52.098;21.006;2023-08-31T13:15:21;3.60;;;3.00;;
68126;SDS011;54931;52.098;21.006;2023-08-31T13:17:49;3.60;;;3.20;;
68126;SDS011;54931;52.098;21.006;2023-08-31T13:20:17;6.00;;;3.40;;
68126;SDS011;54931;52.098;21.006;2023-08-31T13:22:44;4.30;;;3.00;;
68126;SDS011;54931;52.098;21.006;2023-08-31T13:25:12;4.30;;;3.20;;
68126;SDS011;54931;52.098;21.006;2023-08-31T13:27:41;6.60;;;3.60;;
68126;SDS011;54931;52.098;21.006;2023-08-31T13:30:09;4.50;;;3.30;;
68126;SDS011;54931;52.098;21.006;2023-08-31T13:32:39;3.90;;;3.40;;
68126;SDS011;54931;52.098;21.006;2023-08-31T13:35:07;4.50;;;3.50;;
68126;SDS011;54931;52.098;21.006;2023-08-31T13:37:36;3.40;;;3.10;;
68126;SDS011;54931;52.098;21.006;2023-08-31T13:40:04;5.20;;;3.50;;
68126;SDS011;54931;52.098;21.006;2023-08-31T13:42:37;4.90;;;3.20;;
68126;SDS011;54931;52.098;21.006;2023-08-31T13:45:20;4.10;;;3.50;;
68126;SDS011;54931;52.098;21.006;2023-08-31T13:47:48;4.20;;;3.60;;
68126;SDS011;54931;52.098;21.006;2023-08-31T13:50:16;3.70;;;3.10;;
68126;SDS011;54931;52.098;21.006;2023-08-31T13:52:44;4.40;;;3.30;;
68126;SDS011;54931;52.098;21.006;2023-08-31T13:55:12;6.40;;;3.40;;
68126;SDS011;54931;52.098;21.006;2023-08-31T13:57:41;7.60;;;3.60;;
68126;SDS011;54931;52.098;21.006;2023-08-31T14:00:10;5.00;;;3.40;;
68126;SDS011;54931;52.098;21.006;2023-08-31T14:02:42;4.80;;;3.60;;
68126;SDS011;54931;52.098;21.006;2023-08-31T14:05:11;3.90;;;3.50;;
68126;SDS011;54931;52.098;21.006;2023-08-31T14:07:39;6.40;;;3.20;;
68126;SDS011;54931;52.098;21.006;2023-08-31T14:10:07;5.50;;;3.50;;
68126;SDS011;54931;52.098;21.006;2023-08-31T14:12:37;9.20;;;3.80;;
68126;SDS011;54931;52.098;21.006;2023-08-31T14:15:05;13.80;;;4.30;;
68126;SDS011;54931;52.098;21.006;2023-08-31T14:17:34;13.20;;;3.80;;
68126;SDS011;54931;52.098;21.006;2023-08-31T14:20:02;3.80;;;2.90;;
68126;SDS011;54931;52.098;21.006;2023-08-31T14:22:36;5.30;;;3.00;;
68126;SDS011;54931;52.098;21.006;2023-08-31T14:25:04;5.20;;;3.30;;
68126;SDS011;54931;52.098;21.006;2023-08-31T14:27:32;5.90;;;3.20;;
68126;SDS011;54931;52.098;21.006;2023-08-31T14:30:00;6.40;;;3.50;;
68126;SDS011;54931;52.098;21.006;2023-08-31T14:32:27;5.50;;;3.80;;
68126;SDS011;54931;52.098;21.006;2023-08-31T14:34:55;5.90;;;4.20;;
68126;SDS011;54931;52.098;21.006;2023-08-31T14:37:23;8.70;;;4.60;;
68126;SDS011;54931;52.098;21.006;2023-08-31T14:39:50;6.30;;;4.90;;
68126;SDS011;54931;52.098;21.006;2023-08-31T14:42:18;8.70;;;5.70;;
68126;SDS011;54931;52.098;21.006;2023-08-31T14:44:48;7.20;;;5.60;;
68126;SDS011;54931;52.098;21.006;2023-08-31T14:47:18;11.70;;;6.00;;
68126;SDS011;54931;52.098;21.006;2023-08-31T14:49:46;10.20;;;6.20;;
68126;SDS011;54931;52.098;21.006;2023-08-31T14:52:13;9.10;;;6.50;;